Accueil
METAR-TAF:

METAR-TAF

Aéroports :

Aéroport de Bournemouth

Bornemouth, Angleterre

latitude: 50-47N, longitude: 001-50W, altitude: 11 m

Observation

Le bulletin a été fait il y a 28 minutes, à 18:20 UTC
Vent 8 kt de sud
Température 10°C
Humidité 57%
Pression 1016 hPa
Visibilité 10 km ou plus
Quelques nuages à une hauteur de 4800 ft

METAR: EGHH 071820Z 19008KT 9999 FEW048 10/02 Q1016

Heure: 19:48 (18:48 UTC)

Prévision

Le bulletin a été fait il y a 1 heure et 56 minutes, à 16:52 UTC
Prévision valable du 07 à 18 UTC au 07 à 21 UTC
Vent 7 kt de sud
Visibilité 10 km ou plus
Nuages épars à une hauteur de 4000 ft

TAF: EGHH 071652Z 0718/0721 19007KT 9999 SCT040

Observations et prévisions météorologiques de plus de 4000 aéroports (messages METAR et TAF).

Les stations disponibles sont représentées par des disques jaunes et rouges sur la carte.

Passer la souris dessus pour voir le nom de la station.

Cliquer dessus pour voir les observations et prévisions météorologiques.

Pour changer de carte: cliquez sur les boutons verts avec une croix noire pour zoomer, sur le bouton vert avec un tiret pour effectuer un zoom arrière, ou sur les flèches vertes pour les cartes adjacentes.


METAR-TAF: